sensor_id;sensor_type;location;lat;lon;timestamp;P1;durP1;ratioP1;P2;durP2;ratioP2
31282;SDS011;17915;52.540;13.604;2023-02-15T00:00:23;47.23;;;24.87;;
31282;SDS011;17915;52.540;13.604;2023-02-15T00:02:48;43.77;;;23.93;;
31282;SDS011;17915;52.540;13.604;2023-02-15T00:05:14;49.40;;;25.03;;
31282;SDS011;17915;52.540;13.604;2023-02-15T00:07:39;46.53;;;24.83;;
31282;SDS011;17915;52.540;13.604;2023-02-15T00:10:05;48.63;;;26.13;;
31282;SDS011;17915;52.540;13.604;2023-02-15T00:12:31;56.83;;;25.63;;
31282;SDS011;17915;52.540;13.604;2023-02-15T00:14:56;50.23;;;25.40;;
31282;SDS011;17915;52.540;13.604;2023-02-15T00:17:21;46.60;;;26.67;;
31282;SDS011;17915;52.540;13.604;2023-02-15T00:19:47;51.67;;;27.53;;
31282;SDS011;17915;52.540;13.604;2023-02-15T00:22:12;53.20;;;25.20;;
31282;SDS011;17915;52.540;13.604;2023-02-15T00:24:38;54.07;;;25.17;;
31282;SDS011;17915;52.540;13.604;2023-02-15T00:27:03;53.60;;;25.07;;
31282;SDS011;17915;52.540;13.604;2023-02-15T00:29:28;50.33;;;25.80;;
31282;SDS011;17915;52.540;13.604;2023-02-15T00:31:54;50.50;;;24.37;;
31282;SDS011;17915;52.540;13.604;2023-02-15T00:34:23;57.27;;;28.23;;
31282;SDS011;17915;52.540;13.604;2023-02-15T00:36:50;51.85;;;23.65;;
31282;SDS011;17915;52.540;13.604;2023-02-15T00:39:16;49.37;;;26.07;;
31282;SDS011;17915;52.540;13.604;2023-02-15T00:41:41;57.83;;;28.60;;
31282;SDS011;17915;52.540;13.604;2023-02-15T00:44:07;59.40;;;27.07;;
31282;SDS011;17915;52.540;13.604;2023-02-15T00:46:32;56.37;;;27.87;;
31282;SDS011;17915;52.540;13.604;2023-02-15T00:48:58;53.30;;;26.48;;
31282;SDS011;17915;52.540;13.604;2023-02-15T00:51:24;57.10;;;30.87;;
31282;SDS011;17915;52.540;13.604;2023-02-15T00:53:49;58.07;;;26.80;;
31282;SDS011;17915;52.540;13.604;2023-02-15T00:56:15;55.33;;;27.65;;
31282;SDS011;17915;52.540;13.604;2023-02-15T00:58:40;60.37;;;27.60;;
31282;SDS011;17915;52.540;13.604;2023-02-15T01:01:07;62.83;;;28.13;;
31282;SDS011;17915;52.540;13.604;2023-02-15T01:03:34;61.47;;;28.10;;
31282;SDS011;17915;52.540;13.604;2023-02-15T01:06:00;59.47;;;27.77;;
31282;SDS011;17915;52.540;13.604;2023-02-15T01:08:25;52.53;;;24.25;;
31282;SDS011;17915;52.540;13.604;2023-02-15T01:10:51;72.50;;;26.37;;
31282;SDS011;17915;52.540;13.604;2023-02-15T01:13:16;55.47;;;27.07;;
31282;SDS011;17915;52.540;13.604;2023-02-15T01:15:42;58.27;;;28.03;;
31282;SDS011;17915;52.540;13.604;2023-02-15T01:18:08;48.33;;;26.23;;
31282;SDS011;17915;52.540;13.604;2023-02-15T01:20:35;50.63;;;25.80;;
31282;SDS011;17915;52.540;13.604;2023-02-15T01:23:03;57.58;;;26.40;;
31282;SDS011;17915;52.540;13.604;2023-02-15T01:25:29;55.72;;;26.80;;
31282;SDS011;17915;52.540;13.604;2023-02-15T01:27:55;54.53;;;26.60;;
31282;SDS011;17915;52.540;13.604;2023-02-15T01:30:20;54.67;;;24.17;;
31282;SDS011;17915;52.540;13.604;2023-02-15T01:32:45;60.87;;;25.33;;
31282;SDS011;17915;52.540;13.604;2023-02-15T01:35:11;57.47;;;25.03;;
31282;SDS011;17915;52.540;13.604;2023-02-15T01:37:37;54.00;;;26.23;;
31282;SDS011;17915;52.540;13.604;2023-02-15T01:40:03;63.95;;;29.52;;
31282;SDS011;17915;52.540;13.604;2023-02-15T01:42:30;56.97;;;26.75;;
31282;SDS011;17915;52.540;13.604;2023-02-15T01:45:03;57.70;;;28.40;;
31282;SDS011;17915;52.540;13.604;2023-02-15T01:52:37;70.63;;;31.33;;
31282;SDS011;17915;52.540;13.604;2023-02-15T01:55:06;69.35;;;30.67;;
31282;SDS011;17915;52.540;13.604;2023-02-15T01:57:32;72.55;;;31.20;;
31282;SDS011;17915;52.540;13.604;2023-02-15T01:59:58;71.10;;;30.30;;
31282;SDS011;17915;52.540;13.604;2023-02-15T02:02:24;63.53;;;29.27;;
31282;SDS011;17915;52.540;13.604;2023-02-15T02:04:51;71.80;;;30.00;;
31282;SDS011;17915;52.540;13.604;2023-02-15T02:07:21;65.75;;;27.20;;
31282;SDS011;17915;52.540;13.604;2023-02-15T02:09:48;72.30;;;30.73;;
31282;SDS011;17915;52.540;13.604;2023-02-15T02:12:14;70.93;;;29.23;;
31282;SDS011;17915;52.540;13.604;2023-02-15T02:14:41;72.13;;;31.73;;
31282;SDS011;17915;52.540;13.604;2023-02-15T02:17:17;86.88;;;35.28;;
31282;SDS011;17915;52.540;13.604;2023-02-15T02:25:36;79.70;;;28.20;;
31282;SDS011;17915;52.540;13.604;2023-02-15T02:31:21;80.90;;;30.42;;
31282;SDS011;17915;52.540;13.604;2023-02-15T02:34:16;74.18;;;30.52;;
31282;SDS011;17915;52.540;13.604;2023-02-15T02:36:53;77.10;;;31.13;;
31282;SDS011;17915;52.540;13.604;2023-02-15T02:39:33;74.10;;;30.05;;
31282;SDS011;17915;52.540;13.604;2023-02-15T02:44:42;77.43;;;31.17;;
31282;SDS011;17915;52.540;13.604;2023-02-15T02:47:13;85.28;;;33.17;;
31282;SDS011;17915;52.540;13.604;2023-02-15T02:49:43;81.05;;;30.58;;
31282;SDS011;17915;52.540;13.604;2023-02-15T02:54:53;78.82;;;30.27;;
31282;SDS011;17915;52.540;13.604;2023-02-15T02:59:44;84.93;;;33.40;;
31282;SDS011;17915;52.540;13.604;2023-02-15T03:02:13;84.55;;;32.47;;
31282;SDS011;17915;52.540;13.604;2023-02-15T03:04:45;86.05;;;33.20;;
31282;SDS011;17915;52.540;13.604;2023-02-15T03:07:14;87.95;;;32.58;;
31282;SDS011;17915;52.540;13.604;2023-02-15T03:09:46;85.07;;;34.22;;
31282;SDS011;17915;52.540;13.604;2023-02-15T03:12:16;82.80;;;34.00;;
31282;SDS011;17915;52.540;13.604;2023-02-15T03:14:45;87.40;;;38.28;;
31282;SDS011;17915;52.540;13.604;2023-02-15T03:17:13;84.35;;;33.42;;
31282;SDS011;17915;52.540;13.604;2023-02-15T03:19:40;78.88;;;30.02;;
31282;SDS011;17915;52.540;13.604;2023-02-15T03:22:06;77.78;;;30.95;;
31282;SDS011;17915;52.540;13.604;2023-02-15T03:24:36;86.45;;;32.33;;
31282;SDS011;17915;52.540;13.604;2023-02-15T03:27:06;77.43;;;32.30;;
31282;SDS011;17915;52.540;13.604;2023-02-15T03:29:34;94.47;;;34.03;;
31282;SDS011;17915;52.540;13.604;2023-02-15T03:32:00;86.95;;;34.15;;
31282;SDS011;17915;52.540;13.604;2023-02-15T03:34:28;82.35;;;29.58;;
31282;SDS011;17915;52.540;13.604;2023-02-15T03:39:33;90.53;;;36.17;;
31282;SDS011;17915;52.540;13.604;2023-02-15T03:42:20;71.13;;;29.38;;
31282;SDS011;17915;52.540;13.604;2023-02-15T03:44:51;88.20;;;36.53;;
31282;SDS011;17915;52.540;13.604;2023-02-15T03:47:22;78.32;;;31.05;;
31282;SDS011;17915;52.540;13.604;2023-02-15T03:52:52;82.60;;;32.78;;
31282;SDS011;17915;52.540;13.604;2023-02-15T03:55:18;87.68;;;34.60;;
31282;SDS011;17915;52.540;13.604;2023-02-15T03:57:43;91.13;;;35.43;;
31282;SDS011;17915;52.540;13.604;2023-02-15T04:00:27;70.40;;;31.10;;
31282;SDS011;17915;52.540;13.604;2023-02-15T04:05:40;81.57;;;32.40;;
31282;SDS011;17915;52.540;13.604;2023-02-15T04:08:07;75.25;;;31.90;;
31282;SDS011;17915;52.540;13.604;2023-02-15T04:10:33;84.03;;;31.48;;
31282;SDS011;17915;52.540;13.604;2023-02-15T04:13:17;79.90;;;34.85;;
31282;SDS011;17915;52.540;13.604;2023-02-15T04:15:50;83.55;;;34.33;;
31282;SDS011;17915;52.540;13.604;2023-02-15T04:18:28;91.55;;;32.83;;
31282;SDS011;17915;52.540;13.604;2023-02-15T04:21:15;91.32;;;31.73;;
31282;SDS011;17915;52.540;13.604;2023-02-15T04:23:59;85.03;;;33.90;;
31282;SDS011;17915;52.540;13.604;2023-02-15T04:26:42;89.57;;;33.92;;
31282;SDS011;17915;52.540;13.604;2023-02-15T04:29:08;97.13;;;35.30;;
31282;SDS011;17915;52.540;13.604;2023-02-15T04:31:33;88.53;;;36.70;;
31282;SDS011;17915;52.540;13.604;2023-02-15T04:33:58;82.90;;;31.73;;
31282;SDS011;17915;52.540;13.604;2023-02-15T04:36:24;90.80;;;35.63;;
31282;SDS011;17915;52.540;13.604;2023-02-15T04:38:49;89.40;;;34.97;;
31282;SDS011;17915;52.540;13.604;2023-02-15T04:41:14;101.70;;;36.93;;
31282;SDS011;17915;52.540;13.604;2023-02-15T04:43:40;84.43;;;33.50;;
31282;SDS011;17915;52.540;13.604;2023-02-15T04:46:05;87.30;;;36.03;;
31282;SDS011;17915;52.540;13.604;2023-02-15T04:48:30;89.03;;;34.90;;
31282;SDS011;17915;52.540;13.604;2023-02-15T04:50:56;86.53;;;35.10;;
31282;SDS011;17915;52.540;13.604;2023-02-15T04:53:21;89.30;;;36.03;;
31282;SDS011;17915;52.540;13.604;2023-02-15T04:55:47;91.83;;;33.00;;
31282;SDS011;17915;52.540;13.604;2023-02-15T04:58:12;85.80;;;34.20;;
31282;SDS011;17915;52.540;13.604;2023-02-15T05:00:37;95.30;;;34.40;;
31282;SDS011;17915;52.540;13.604;2023-02-15T05:03:03;89.60;;;32.50;;
31282;SDS011;17915;52.540;13.604;2023-02-15T05:05:28;94.20;;;33.57;;
31282;SDS011;17915;52.540;13.604;2023-02-15T05:07:54;92.53;;;36.63;;
31282;SDS011;17915;52.540;13.604;2023-02-15T05:10:19;87.97;;;33.50;;
31282;SDS011;17915;52.540;13.604;2023-02-15T05:12:45;91.73;;;35.03;;
31282;SDS011;17915;52.540;13.604;2023-02-15T05:15:10;76.60;;;32.23;;
31282;SDS011;17915;52.540;13.604;2023-02-15T05:17:35;88.40;;;34.83;;
31282;SDS011;17915;52.540;13.604;2023-02-15T05:20:01;93.10;;;34.43;;
31282;SDS011;17915;52.540;13.604;2023-02-15T05:22:26;91.83;;;34.53;;
31282;SDS011;17915;52.540;13.604;2023-02-15T05:24:52;79.93;;;31.00;;
31282;SDS011;17915;52.540;13.604;2023-02-15T05:27:36;85.00;;;34.47;;
31282;SDS011;17915;52.540;13.604;2023-02-15T05:30:20;79.38;;;33.47;;
31282;SDS011;17915;52.540;13.604;2023-02-15T05:32:45;88.88;;;33.97;;
31282;SDS011;17915;52.540;13.604;2023-02-15T05:35:12;89.93;;;35.87;;
31282;SDS011;17915;52.540;13.604;2023-02-15T05:37:39;86.55;;;36.08;;
31282;SDS011;17915;52.540;13.604;2023-02-15T05:40:04;81.53;;;32.43;;
31282;SDS011;17915;52.540;13.604;2023-02-15T05:42:30;91.03;;;35.38;;
31282;SDS011;17915;52.540;13.604;2023-02-15T05:44:56;97.57;;;35.57;;
31282;SDS011;17915;52.540;13.604;2023-02-15T05:47:21;98.00;;;39.27;;
31282;SDS011;17915;52.540;13.604;2023-02-15T05:49:46;83.97;;;34.03;;
31282;SDS011;17915;52.540;13.604;2023-02-15T05:52:12;82.77;;;34.73;;
31282;SDS011;17915;52.540;13.604;2023-02-15T05:54:37;92.57;;;34.37;;
31282;SDS011;17915;52.540;13.604;2023-02-15T05:57:02;88.13;;;34.00;;
31282;SDS011;17915;52.540;13.604;2023-02-15T05:59:28;82.47;;;33.67;;
31282;SDS011;17915;52.540;13.604;2023-02-15T06:01:53;91.70;;;34.57;;
31282;SDS011;17915;52.540;13.604;2023-02-15T06:04:18;87.80;;;36.90;;
31282;SDS011;17915;52.540;13.604;2023-02-15T06:06:44;84.03;;;33.63;;
31282;SDS011;17915;52.540;13.604;2023-02-15T06:09:10;93.20;;;35.27;;
31282;SDS011;17915;52.540;13.604;2023-02-15T06:11:38;86.03;;;35.17;;
31282;SDS011;17915;52.540;13.604;2023-02-15T06:14:03;84.67;;;33.47;;
31282;SDS011;17915;52.540;13.604;2023-02-15T06:16:29;86.93;;;36.67;;
31282;SDS011;17915;52.540;13.604;2023-02-15T06:18:55;87.32;;;36.17;;
31282;SDS011;17915;52.540;13.604;2023-02-15T06:21:20;113.17;;;41.70;;
31282;SDS011;17915;52.540;13.604;2023-02-15T06:23:45;87.67;;;34.93;;
31282;SDS011;17915;52.540;13.604;2023-02-15T06:26:11;94.87;;;36.67;;
31282;SDS011;17915;52.540;13.604;2023-02-15T06:28:36;100.97;;;37.13;;
31282;SDS011;17915;52.540;13.604;2023-02-15T06:31:02;100.53;;;39.70;;
31282;SDS011;17915;52.540;13.604;2023-02-15T06:33:28;114.82;;;41.00;;
31282;SDS011;17915;52.540;13.604;2023-02-15T06:35:55;100.07;;;39.00;;
31282;SDS011;17915;52.540;13.604;2023-02-15T06:38:21;101.15;;;38.17;;
31282;SDS011;17915;52.540;13.604;2023-02-15T06:40:47;94.75;;;35.50;;
31282;SDS011;17915;52.540;13.604;2023-02-15T06:43:12;94.03;;;37.57;;
31282;SDS011;17915;52.540;13.604;2023-02-15T06:45:37;105.13;;;34.37;;
31282;SDS011;17915;52.540;13.604;2023-02-15T06:48:03;100.10;;;39.70;;
31282;SDS011;17915;52.540;13.604;2023-02-15T06:50:29;93.07;;;36.72;;
31282;SDS011;17915;52.540;13.604;2023-02-15T06:52:55;117.43;;;37.17;;
31282;SDS011;17915;52.540;13.604;2023-02-15T06:55:22;164.50;;;40.15;;
31282;SDS011;17915;52.540;13.604;2023-02-15T06:57:47;109.90;;;36.37;;
31282;SDS011;17915;52.540;13.604;2023-02-15T07:00:12;88.17;;;33.97;;
31282;SDS011;17915;52.540;13.604;2023-02-15T07:02:38;93.10;;;33.60;;
31282;SDS011;17915;52.540;13.604;2023-02-15T07:05:04;94.67;;;34.03;;
31282;SDS011;17915;52.540;13.604;2023-02-15T07:07:30;84.15;;;34.63;;
31282;SDS011;17915;52.540;13.604;2023-02-15T07:09:55;117.97;;;33.90;;
31282;SDS011;17915;52.540;13.604;2023-02-15T07:12:20;105.80;;;32.30;;
31282;SDS011;17915;52.540;13.604;2023-02-15T07:15:04;77.57;;;35.03;;
31282;SDS011;17915;52.540;13.604;2023-02-15T07:19:56;78.00;;;30.23;;
31282;SDS011;17915;52.540;13.604;2023-02-15T07:22:21;84.70;;;33.77;;
31282;SDS011;17915;52.540;13.604;2023-02-15T07:24:47;77.53;;;31.47;;
31282;SDS011;17915;52.540;13.604;2023-02-15T07:27:14;68.78;;;31.35;;
31282;SDS011;17915;52.540;13.604;2023-02-15T07:29:39;107.60;;;35.70;;
31282;SDS011;17915;52.540;13.604;2023-02-15T07:32:04;85.07;;;34.53;;
31282;SDS011;17915;52.540;13.604;2023-02-15T07:34:30;91.17;;;34.33;;
31282;SDS011;17915;52.540;13.604;2023-02-15T07:36:55;76.83;;;33.03;;
31282;SDS011;17915;52.540;13.604;2023-02-15T07:39:21;87.73;;;31.37;;
31282;SDS011;17915;52.540;13.604;2023-02-15T07:41:46;107.93;;;33.53;;
31282;SDS011;17915;52.540;13.604;2023-02-15T07:44:12;74.10;;;30.10;;
31282;SDS011;17915;52.540;13.604;2023-02-15T07:46:38;73.82;;;29.77;;
31282;SDS011;17915;52.540;13.604;2023-02-15T07:49:04;79.90;;;30.17;;
31282;SDS011;17915;52.540;13.604;2023-02-15T07:51:29;84.53;;;31.90;;
31282;SDS011;17915;52.540;13.604;2023-02-15T07:53:54;87.23;;;31.80;;
31282;SDS011;17915;52.540;13.604;2023-02-15T07:56:20;73.87;;;29.93;;
31282;SDS011;17915;52.540;13.604;2023-02-15T07:58:45;73.07;;;30.23;;
31282;SDS011;17915;52.540;13.604;2023-02-15T08:01:28;103.00;;;32.90;;
31282;SDS011;17915;52.540;13.604;2023-02-15T08:03:56;96.68;;;34.33;;
31282;SDS011;17915;52.540;13.604;2023-02-15T08:06:22;103.82;;;31.73;;
31282;SDS011;17915;52.540;13.604;2023-02-15T08:08:49;75.90;;;33.20;;
31282;SDS011;17915;52.540;13.604;2023-02-15T08:11:16;80.70;;;31.33;;
31282;SDS011;17915;52.540;13.604;2023-02-15T08:14:13;81.47;;;31.45;;
31282;SDS011;17915;52.540;13.604;2023-02-15T08:21:36;133.15;;;32.58;;
31282;SDS011;17915;52.540;13.604;2023-02-15T08:24:03;93.80;;;35.05;;
31282;SDS011;17915;52.540;13.604;2023-02-15T08:26:30;75.20;;;33.15;;
31282;SDS011;17915;52.540;13.604;2023-02-15T08:28:56;75.00;;;31.67;;
31282;SDS011;17915;52.540;13.604;2023-02-15T08:31:21;74.95;;;30.55;;
31282;SDS011;17915;52.540;13.604;2023-02-15T08:33:47;66.97;;;29.47;;
31282;SDS011;17915;52.540;13.604;2023-02-15T08:36:16;66.22;;;29.27;;
31282;SDS011;17915;52.540;13.604;2023-02-15T08:38:43;80.63;;;32.42;;
31282;SDS011;17915;52.540;13.604;2023-02-15T08:41:13;74.57;;;31.27;;
31282;SDS011;17915;52.540;13.604;2023-02-15T08:43:38;78.28;;;30.30;;
31282;SDS011;17915;52.540;13.604;2023-02-15T08:46:04;76.60;;;30.37;;
31282;SDS011;17915;52.540;13.604;2023-02-15T08:50:56;66.20;;;26.67;;
31282;SDS011;17915;52.540;13.604;2023-02-15T08:53:21;71.07;;;29.40;;
31282;SDS011;17915;52.540;13.604;2023-02-15T08:55:56;72.30;;;32.40;;
31282;SDS011;17915;52.540;13.604;2023-02-15T08:58:22;73.40;;;28.23;;
31282;SDS011;17915;52.540;13.604;2023-02-15T09:00:47;71.37;;;28.70;;
31282;SDS011;17915;52.540;13.604;2023-02-15T09:03:13;67.40;;;30.60;;
31282;SDS011;17915;52.540;13.604;2023-02-15T09:05:38;71.37;;;29.27;;
31282;SDS011;17915;52.540;13.604;2023-02-15T09:08:03;61.93;;;28.73;;
31282;SDS011;17915;52.540;13.604;2023-02-15T09:10:29;73.90;;;32.53;;
31282;SDS011;17915;52.540;13.604;2023-02-15T09:12:54;69.77;;;30.03;;
31282;SDS011;17915;52.540;13.604;2023-02-15T09:15:20;66.10;;;29.10;;
31282;SDS011;17915;52.540;13.604;2023-02-15T09:17:45;61.23;;;26.47;;
31282;SDS011;17915;52.540;13.604;2023-02-15T09:20:10;59.77;;;28.53;;
31282;SDS011;17915;52.540;13.604;2023-02-15T09:22:36;62.03;;;26.57;;
31282;SDS011;17915;52.540;13.604;2023-02-15T09:25:01;64.10;;;30.40;;
31282;SDS011;17915;52.540;13.604;2023-02-15T09:27:27;71.33;;;31.67;;
31282;SDS011;17915;52.540;13.604;2023-02-15T09:29:52;66.67;;;27.40;;
31282;SDS011;17915;52.540;13.604;2023-02-15T09:32:18;63.37;;;26.70;;
31282;SDS011;17915;52.540;13.604;2023-02-15T09:34:43;70.97;;;30.03;;
31282;SDS011;17915;52.540;13.604;2023-02-15T09:37:09;58.97;;;25.50;;
31282;SDS011;17915;52.540;13.604;2023-02-15T09:39:34;64.03;;;28.07;;
31282;SDS011;17915;52.540;13.604;2023-02-15T09:42:09;68.57;;;31.15;;
31282;SDS011;17915;52.540;13.604;2023-02-15T09:56:31;61.58;;;27.33;;
31282;SDS011;17915;52.540;13.604;2023-02-15T10:07:03;62.25;;;27.85;;
31282;SDS011;17915;52.540;13.604;2023-02-15T10:13:05;56.85;;;26.15;;
31282;SDS011;17915;52.540;13.604;2023-02-15T10:21:33;55.08;;;27.33;;
31282;SDS011;17915;52.540;13.604;2023-02-15T10:27:20;51.63;;;26.40;;
31282;SDS011;17915;52.540;13.604;2023-02-15T10:30:02;58.63;;;26.55;;
31282;SDS011;17915;52.540;13.604;2023-02-15T10:32:37;54.90;;;28.83;;
31282;SDS011;17915;52.540;13.604;2023-02-15T10:35:10;58.13;;;26.67;;
31282;SDS011;17915;52.540;13.604;2023-02-15T10:51:43;54.92;;;28.38;;
31282;SDS011;17915;52.540;13.604;2023-02-15T10:57:38;42.15;;;24.23;;
31282;SDS011;17915;52.540;13.604;2023-02-15T11:08:02;51.40;;;24.90;;
31282;SDS011;17915;52.540;13.604;2023-02-15T11:10:30;45.35;;;24.38;;
31282;SDS011;17915;52.540;13.604;2023-02-15T11:13:03;49.30;;;25.65;;
31282;SDS011;17915;52.540;13.604;2023-02-15T11:15:44;48.83;;;24.50;;
31282;SDS011;17915;52.540;13.604;2023-02-15T11:20:51;52.30;;;28.38;;
31282;SDS011;17915;52.540;13.604;2023-02-15T11:23:18;65.32;;;27.83;;
31282;SDS011;17915;52.540;13.604;2023-02-15T11:25:44;58.27;;;27.63;;
31282;SDS011;17915;52.540;13.604;2023-02-15T11:28:22;57.75;;;27.17;;
31282;SDS011;17915;52.540;13.604;2023-02-15T11:30:53;60.20;;;28.48;;
31282;SDS011;17915;52.540;13.604;2023-02-15T11:33:22;51.90;;;26.35;;
31282;SDS011;17915;52.540;13.604;2023-02-15T11:36:03;53.83;;;25.20;;
31282;SDS011;17915;52.540;13.604;2023-02-15T11:38:31;55.50;;;27.20;;
31282;SDS011;17915;52.540;13.604;2023-02-15T11:41:19;48.08;;;24.25;;
31282;SDS011;17915;52.540;13.604;2023-02-15T11:43:53;46.03;;;24.43;;
31282;SDS011;17915;52.540;13.604;2023-02-15T11:46:19;51.97;;;24.42;;
31282;SDS011;17915;52.540;13.604;2023-02-15T11:48:46;56.42;;;25.88;;
31282;SDS011;17915;52.540;13.604;2023-02-15T11:51:13;50.03;;;24.70;;
31282;SDS011;17915;52.540;13.604;2023-02-15T11:53:41;52.05;;;22.88;;
31282;SDS011;17915;52.540;13.604;2023-02-15T11:56:14;54.80;;;25.80;;
31282;SDS011;17915;52.540;13.604;2023-02-15T11:58:43;42.80;;;22.63;;
31282;SDS011;17915;52.540;13.604;2023-02-15T12:06:13;55.85;;;23.77;;
31282;SDS011;17915;52.540;13.604;2023-02-15T12:08:43;47.25;;;23.27;;
31282;SDS011;17915;52.540;13.604;2023-02-15T12:11:22;44.22;;;22.40;;
31282;SDS011;17915;52.540;13.604;2023-02-15T12:13:59;43.35;;;22.38;;
31282;SDS011;17915;52.540;13.604;2023-02-15T12:16:26;42.72;;;23.67;;
31282;SDS011;17915;52.540;13.604;2023-02-15T12:18:54;40.70;;;22.63;;
31282;SDS011;17915;52.540;13.604;2023-02-15T12:21:31;39.05;;;20.40;;
31282;SDS011;17915;52.540;13.604;2023-02-15T12:24:03;42.75;;;23.73;;
31282;SDS011;17915;52.540;13.604;2023-02-15T12:26:34;42.40;;;22.25;;
31282;SDS011;17915;52.540;13.604;2023-02-15T12:29:21;43.42;;;22.58;;
31282;SDS011;17915;52.540;13.604;2023-02-15T12:31:46;39.03;;;20.08;;
31282;SDS011;17915;52.540;13.604;2023-02-15T12:36:51;52.92;;;23.13;;
31282;SDS011;17915;52.540;13.604;2023-02-15T12:39:26;47.92;;;23.83;;
31282;SDS011;17915;52.540;13.604;2023-02-15T12:44:27;38.75;;;21.63;;
31282;SDS011;17915;52.540;13.604;2023-02-15T12:49:41;40.78;;;20.00;;
31282;SDS011;17915;52.540;13.604;2023-02-15T12:54:45;36.25;;;21.52;;
31282;SDS011;17915;52.540;13.604;2023-02-15T13:02:42;42.15;;;20.35;;
31282;SDS011;17915;52.540;13.604;2023-02-15T13:07:38;41.35;;;20.55;;
31282;SDS011;17915;52.540;13.604;2023-02-15T13:10:22;38.33;;;20.15;;
31282;SDS011;17915;52.540;13.604;2023-02-15T13:12:50;40.72;;;18.95;;
31282;SDS011;17915;52.540;13.604;2023-02-15T13:15:26;41.13;;;19.20;;
31282;SDS011;17915;52.540;13.604;2023-02-15T13:17:54;37.80;;;20.10;;
31282;SDS011;17915;52.540;13.604;2023-02-15T13:20:21;35.13;;;18.63;;
31282;SDS011;17915;52.540;13.604;2023-02-15T13:22:52;40.17;;;18.13;;
31282;SDS011;17915;52.540;13.604;2023-02-15T13:25:22;37.45;;;19.33;;
31282;SDS011;17915;52.540;13.604;2023-02-15T13:27:52;35.03;;;20.42;;
31282;SDS011;17915;52.540;13.604;2023-02-15T13:30:35;36.63;;;17.92;;
31282;SDS011;17915;52.540;13.604;2023-02-15T13:33:04;33.03;;;16.75;;
31282;SDS011;17915;52.540;13.604;2023-02-15T13:35:46;36.22;;;21.35;;
31282;SDS011;17915;52.540;13.604;2023-02-15T13:40:55;32.17;;;18.70;;
31282;SDS011;17915;52.540;13.604;2023-02-15T13:51:45;40.78;;;18.75;;
31282;SDS011;17915;52.540;13.604;2023-02-15T14:02:28;28.05;;;16.85;;
31282;SDS011;17915;52.540;13.604;2023-02-15T14:13:38;28.42;;;18.08;;
31282;SDS011;17915;52.540;13.604;2023-02-15T14:16:19;34.97;;;17.98;;
31282;SDS011;17915;52.540;13.604;2023-02-15T14:19:23;33.53;;;15.98;;
31282;SDS011;17915;52.540;13.604;2023-02-15T14:21:46;29.77;;;17.17;;
31282;SDS011;17915;52.540;13.604;2023-02-15T14:24:18;33.55;;;18.13;;
31282;SDS011;17915;52.540;13.604;2023-02-15T14:29:46;30.83;;;16.88;;
31282;SDS011;17915;52.540;13.604;2023-02-15T14:33:04;36.63;;;19.17;;
31282;SDS011;17915;52.540;13.604;2023-02-15T14:35:17;31.02;;;17.58;;
31282;SDS011;17915;52.540;13.604;2023-02-15T14:37:52;34.83;;;18.65;;
31282;SDS011;17915;52.540;13.604;2023-02-15T14:43:25;35.67;;;18.17;;
31282;SDS011;17915;52.540;13.604;2023-02-15T14:45:55;34.72;;;18.63;;
31282;SDS011;17915;52.540;13.604;2023-02-15T14:50:52;30.73;;;17.48;;
31282;SDS011;17915;52.540;13.604;2023-02-15T14:58:59;36.28;;;18.30;;
31282;SDS011;17915;52.540;13.604;2023-02-15T15:01:51;36.72;;;17.58;;
31282;SDS011;17915;52.540;13.604;2023-02-15T15:04:31;31.08;;;17.02;;
31282;SDS011;17915;52.540;13.604;2023-02-15T15:09:43;35.95;;;19.15;;
31282;SDS011;17915;52.540;13.604;2023-02-15T15:14:51;31.15;;;16.88;;
31282;SDS011;17915;52.540;13.604;2023-02-15T15:20:02;32.22;;;17.60;;
31282;SDS011;17915;52.540;13.604;2023-02-15T15:22:46;34.22;;;18.38;;
31282;SDS011;17915;52.540;13.604;2023-02-15T15:28:02;31.02;;;17.48;;
31282;SDS011;17915;52.540;13.604;2023-02-15T15:41:41;47.25;;;18.58;;
31282;SDS011;17915;52.540;13.604;2023-02-15T15:47:19;50.85;;;18.58;;
31282;SDS011;17915;52.540;13.604;2023-02-15T15:50:11;44.58;;;19.27;;
31282;SDS011;17915;52.540;13.604;2023-02-15T15:52:38;45.53;;;17.58;;
31282;SDS011;17915;52.540;13.604;2023-02-15T15:55:13;53.95;;;21.33;;
31282;SDS011;17915;52.540;13.604;2023-02-15T15:57:41;44.95;;;19.15;;
31282;SDS011;17915;52.540;13.604;2023-02-15T16:03:13;32.70;;;16.88;;
31282;SDS011;17915;52.540;13.604;2023-02-15T16:05:41;35.45;;;18.77;;
31282;SDS011;17915;52.540;13.604;2023-02-15T16:08:06;31.57;;;16.53;;
31282;SDS011;17915;52.540;13.604;2023-02-15T16:10:32;32.30;;;17.37;;
31282;SDS011;17915;52.540;13.604;2023-02-15T16:12:59;32.00;;;18.27;;
31282;SDS011;17915;52.540;13.604;2023-02-15T16:15:25;43.15;;;20.73;;
31282;SDS011;17915;52.540;13.604;2023-02-15T16:18:14;39.08;;;18.73;;
31282;SDS011;17915;52.540;13.604;2023-02-15T16:20:42;35.92;;;19.73;;
31282;SDS011;17915;52.540;13.604;2023-02-15T16:28:37;39.97;;;18.60;;
31282;SDS011;17915;52.540;13.604;2023-02-15T16:31:14;38.22;;;20.63;;
31282;SDS011;17915;52.540;13.604;2023-02-15T16:33:41;45.90;;;21.98;;
31282;SDS011;17915;52.540;13.604;2023-02-15T16:41:08;45.03;;;19.90;;
31282;SDS011;17915;52.540;13.604;2023-02-15T16:43:35;42.33;;;19.83;;
31282;SDS011;17915;52.540;13.604;2023-02-15T16:46:06;50.20;;;21.13;;
31282;SDS011;17915;52.540;13.604;2023-02-15T16:48:34;45.28;;;22.23;;
31282;SDS011;17915;52.540;13.604;2023-02-15T16:51:04;43.13;;;23.38;;
31282;SDS011;17915;52.540;13.604;2023-02-15T16:53:30;49.77;;;21.73;;
31282;SDS011;17915;52.540;13.604;2023-02-15T16:55:57;42.70;;;20.27;;
31282;SDS011;17915;52.540;13.604;2023-02-15T16:58:27;43.58;;;22.17;;
31282;SDS011;17915;52.540;13.604;2023-02-15T17:00:55;49.70;;;23.65;;
31282;SDS011;17915;52.540;13.604;2023-02-15T17:03:22;50.88;;;21.33;;
31282;SDS011;17915;52.540;13.604;2023-02-15T17:05:50;39.83;;;20.27;;
31282;SDS011;17915;52.540;13.604;2023-02-15T17:11:00;48.90;;;22.10;;
31282;SDS011;17915;52.540;13.604;2023-02-15T17:13:28;50.00;;;21.55;;
31282;SDS011;17915;52.540;13.604;2023-02-15T17:21:01;41.78;;;20.33;;
31282;SDS011;17915;52.540;13.604;2023-02-15T17:23:35;50.65;;;21.08;;
31282;SDS011;17915;52.540;13.604;2023-02-15T17:28:52;45.17;;;22.02;;
31282;SDS011;17915;52.540;13.604;2023-02-15T17:31:21;46.80;;;20.70;;
31282;SDS011;17915;52.540;13.604;2023-02-15T17:33:49;54.90;;;26.30;;
31282;SDS011;17915;52.540;13.604;2023-02-15T17:36:20;50.45;;;23.83;;
31282;SDS011;17915;52.540;13.604;2023-02-15T17:39:00;61.47;;;22.92;;
31282;SDS011;17915;52.540;13.604;2023-02-15T17:41:29;50.38;;;23.55;;
31282;SDS011;17915;52.540;13.604;2023-02-15T17:43:56;55.85;;;26.02;;
31282;SDS011;17915;52.540;13.604;2023-02-15T17:46:21;57.75;;;26.30;;
31282;SDS011;17915;52.540;13.604;2023-02-15T17:48:48;63.95;;;25.30;;
31282;SDS011;17915;52.540;13.604;2023-02-15T17:51:14;54.28;;;24.80;;
31282;SDS011;17915;52.540;13.604;2023-02-15T17:53:43;66.35;;;27.52;;